Gujranwala Weather



Gujranwala's Current Weather

Temprature 36.03o clear sky

clear sky

Rain: 0 %

Min Temprature36.03o
Max Temprature36.03o
Humidity27
Wind Speed1.23 m/h
Sun Rise05:12:46
Sun Set19:06:25
Current Time: 24-Jul-2021 16:56:20
Lat/Lon: 32.1617, 74.1883




Gujranwala's Geo Location



Gujranwala's Weather Forecast

Time Overall Temp Min Temp Max Temp Humidity Wind Speed Rain
24-Jul-2021 (Sat)
17:00:00 clear sky 36.030 36.030 41.120 27 1.23 m/h 0 %
20:00:00 clear sky 37.010 37.010 38.970 29 0.67 m/h 0 %
23:00:00 clear sky 36.420 36.420 36.610 37 3.34 m/h 0 %
25-Jul-2021 (Sun)
02:00:00 broken clouds 35.430 35.430 35.430 46 2.24 m/h 0 %
05:00:00 broken clouds 34.220 34.220 34.220 50 1.15 m/h 0 %
08:00:00 overcast clouds 36.350 36.350 36.350 43 1.3 m/h 0 %
11:00:00 overcast clouds 40.560 40.560 40.560 33 1.4 m/h 0 %
14:00:00 broken clouds 42.780 42.780 42.780 25 1.18 m/h 0 %
17:00:00 broken clouds 42.280 42.280 42.280 26 2.29 m/h 0 %
20:00:00 broken clouds 37.170 37.170 37.170 45 5.77 m/h 0 %
23:00:00 overcast clouds 34.340 34.340 34.340 57 5.51 m/h 0 %
26-Jul-2021 (Mon)
02:00:00 overcast clouds 32.590 32.590 32.590 63 5.01 m/h 0 %
05:00:00 overcast clouds 31.530 31.530 31.530 67 5.15 m/h 0 %
08:00:00 overcast clouds 32.860 32.860 32.860 62 4.86 m/h 0 %
11:00:00 broken clouds 37.690 37.690 37.690 45 3.79 m/h 0 %
14:00:00 few clouds 41.000 41.000 41.000 35 2.48 m/h 0 %
17:00:00 scattered clouds 40.660 40.660 40.660 35 4.41 m/h 0 %
20:00:00 light rain 34.170 34.170 34.170 59 6.35 m/h 107 %
23:00:00 light rain 31.310 31.310 31.310 71 6.1 m/h 35 %
27-Jul-2021 (Tue)
02:00:00 overcast clouds 29.300 29.300 29.300 80 6.31 m/h 0 %
05:00:00 overcast clouds 28.700 28.700 28.700 81 5.04 m/h 0 %
08:00:00 overcast clouds 30.360 30.360 30.360 72 4.54 m/h 0 %
11:00:00 overcast clouds 35.230 35.230 35.230 50 3.01 m/h 0 %
14:00:00 light rain 37.040 37.040 37.040 44 3.61 m/h 11 %
17:00:00 light rain 34.480 34.480 34.480 53 5.71 m/h 34 %
20:00:00 overcast clouds 30.870 30.870 30.870 66 6.5 m/h 0 %
23:00:00 light rain 28.610 28.610 28.610 75 6.1 m/h 83 %
28-Jul-2021 (Wed)
02:00:00 moderate rain 27.160 27.160 27.160 82 4.58 m/h 412 %
05:00:00 moderate rain 26.780 26.780 26.780 86 4.1 m/h 340 %
08:00:00 light rain 27.640 27.640 27.640 84 4.31 m/h 210 %
11:00:00 light rain 28.420 28.420 28.420 79 4.65 m/h 133 %
14:00:00 light rain 27.660 27.660 27.660 82 4.61 m/h 150 %
17:00:00 light rain 27.550 27.550 27.550 82 3.6 m/h 177 %
20:00:00 overcast clouds 27.110 27.110 27.110 86 2.78 m/h 0 %
23:00:00 overcast clouds 26.540 26.540 26.540 89 2.66 m/h 0 %
29-Jul-2021 (Thu)
02:00:00 overcast clouds 26.490 26.490 26.490 88 2.05 m/h 0 %
05:00:00 light rain 26.090 26.090 26.090 90 1.75 m/h 12 %
08:00:00 few clouds 28.770 28.770 28.770 75 2.34 m/h 0 %
11:00:00 scattered clouds 33.440 33.440 33.440 56 1.32 m/h 0 %
14:00:00 overcast clouds 35.060 35.060 35.060 49 0.55 m/h 0 %

Famous Cities (60)